Time;durP1;ratioP1;P1;durP2;ratioP2;P2;SDS_P1;SDS_P2;PMS_P1;PMS_P2;Temp;Humidity;BMP_temperature;BMP_pressure;BME280_temperature;BME280_humidity;BME280_pressure;Samples;Min_cycle;Max_cycle;Signal;HPM_P1;HPM_P2
2023/12/14 00:01:26;;;;;;;10.33;7.83;;;;;;;4.97;100.00;98821.23;1480846;88;22292;-75
2023/12/14 00:03:52;;;;;;;14.60;9.27;;;;;;;4.98;100.00;98819.78;1467832;88;21390;-77
2023/12/14 00:06:18;;;;;;;11.43;7.60;;;;;;;5.01;100.00;98817.84;1480157;88;21450;-76
2023/12/14 00:08:44;;;;;;;11.80;8.10;;;;;;;5.03;100.00;98814.56;1480760;88;22411;-76
2023/12/14 00:11:11;;;;;;;11.60;7.97;;;;;;;5.04;100.00;98813.61;1459326;88;21457;-75
2023/12/14 00:13:38;;;;;;;10.90;8.07;;;;;;;5.02;100.00;98818.98;1473083;88;21576;-76
2023/12/14 00:16:06;;;;;;;9.77;6.57;;;;;;;5.07;100.00;98827.72;1458924;88;21457;-78
2023/12/14 00:18:32;;;;;;;9.73;6.93;;;;;;;5.11;100.00;98834.30;1468302;88;21597;-76
2023/12/14 00:20:59;;;;;;;11.03;7.20;;;;;;;5.12;100.00;98837.25;1473695;88;22541;-75
2023/12/14 00:23:25;;;;;;;9.23;6.37;;;;;;;5.12;100.00;98849.05;1480392;88;21443;-77
2023/12/14 00:25:51;;;;;;;9.93;7.27;;;;;;;5.09;100.00;98846.73;1465335;88;22353;-76
2023/12/14 00:28:18;;;;;;;12.00;7.67;;;;;;;5.07;100.00;98856.57;1469261;88;21681;-76
2023/12/14 00:30:44;;;;;;;12.70;8.90;;;;;;;5.01;100.00;98865.04;1469842;88;21502;-77
2023/12/14 00:33:10;;;;;;;10.93;7.97;;;;;;;4.98;100.00;98874.84;1482169;88;21626;-76
2023/12/14 00:35:36;;;;;;;20.80;10.40;;;;;;;4.98;100.00;98877.96;1472708;88;21664;-75
2023/12/14 00:38:03;;;;;;;15.67;9.00;;;;;;;4.95;100.00;98873.02;1478672;88;21436;-76
2023/12/14 00:40:29;;;;;;;13.80;9.40;;;;;;;4.94;100.00;98880.03;1473551;88;21635;-76
2023/12/14 00:42:55;;;;;;;11.73;8.63;;;;;;;4.94;100.00;98892.32;1477231;88;22263;-76
2023/12/14 00:45:21;;;;;;;12.87;9.30;;;;;;;4.97;100.00;98890.71;1462719;88;21495;-77
2023/12/14 00:47:48;;;;;;;12.33;9.27;;;;;;;5.01;100.00;98901.25;1475374;88;21464;-77
2023/12/14 00:50:14;;;;;;;14.33;9.07;;;;;;;5.05;100.00;98888.17;1468763;88;22271;-76
2023/12/14 00:52:40;;;;;;;11.97;7.43;;;;;;;5.07;100.00;98886.23;1473529;88;22748;-77
2023/12/14 00:55:07;;;;;;;9.40;7.33;;;;;;;5.10;100.00;98885.11;1475525;88;21705;-78
2023/12/14 00:57:33;;;;;;;11.83;8.23;;;;;;;5.13;100.00;98890.05;1473397;88;21450;-78
2023/12/14 00:59:59;;;;;;;18.30;8.73;;;;;;;5.16;100.00;98905.48;1480217;88;21502;-76
2023/12/14 01:02:25;;;;;;;11.50;8.23;;;;;;;5.21;100.00;98911.11;1484567;88;21650;-77
2023/12/14 01:04:51;;;;;;;12.70;8.33;;;;;;;5.26;100.00;98899.66;1476221;88;21465;-75
2023/12/14 01:07:17;;;;;;;11.27;7.53;;;;;;;5.31;100.00;98904.47;1469610;88;21598;-76
2023/12/14 01:09:44;;;;;;;13.27;8.23;;;;;;;5.35;100.00;98894.84;1477564;88;21436;-76
2023/12/14 01:12:10;;;;;;;12.00;7.73;;;;;;;5.39;100.00;98897.48;1475896;88;21552;-77
2023/12/14 01:14:36;;;;;;;10.00;7.70;;;;;;;5.39;100.00;98892.23;1475253;88;21442;-77
2023/12/14 01:17:03;;;;;;;10.67;8.30;;;;;;;5.33;100.00;98894.16;1487319;88;21457;-77
2023/12/14 01:19:29;;;;;;;11.03;7.57;;;;;;;5.29;100.00;98899.36;1488582;88;21471;-77
2023/12/14 01:21:55;;;;;;;11.27;7.93;;;;;;;5.27;100.00;98900.02;1489221;88;22017;-75
2023/12/14 01:24:21;;;;;;;10.87;7.57;;;;;;;5.24;100.00;98902.94;1479898;88;21574;-77
2023/12/14 01:26:48;;;;;;;8.83;6.90;;;;;;;5.26;100.00;98898.34;1491004;88;21964;-77
2023/12/14 01:29:14;;;;;;;10.67;7.63;;;;;;;5.27;100.00;98893.95;1481896;88;22322;-76
2023/12/14 01:31:40;;;;;;;10.03;7.37;;;;;;;5.30;100.00;98890.53;1486052;88;22945;-75
2023/12/14 01:34:06;;;;;;;12.57;8.00;;;;;;;5.34;100.00;98893.17;1479703;88;21494;-75
2023/12/14 01:36:32;;;;;;;10.37;6.97;;;;;;;5.36;100.00;98905.66;1467553;88;21435;-75
2023/12/14 01:38:58;;;;;;;9.30;7.47;;;;;;;5.36;100.00;98906.97;1479854;88;22279;-74
2023/12/14 01:41:25;;;;;;;8.43;6.57;;;;;;;5.35;100.00;98903.17;1453271;88;21420;-75
2023/12/14 01:43:51;;;;;;;9.57;7.67;;;;;;;5.33;100.00;98904.66;1478389;88;21486;-76
2023/12/14 01:46:17;;;;;;;10.03;8.00;;;;;;;5.30;100.00;98910.20;1476089;88;22923;-76
2023/12/14 01:48:43;;;;;;;11.07;7.53;;;;;;;5.25;100.00;98908.52;1478700;88;21716;-76
2023/12/14 01:51:09;;;;;;;10.73;8.67;;;;;;;5.21;100.00;98895.37;1480446;88;21518;-76
2023/12/14 01:53:36;;;;;;;10.93;8.47;;;;;;;5.16;100.00;98902.86;1479841;88;21442;-75
2023/12/14 01:56:02;;;;;;;11.37;9.03;;;;;;;5.12;100.00;98921.17;1485622;88;21441;-76
2023/12/14 01:58:28;;;;;;;11.97;8.97;;;;;;;5.08;100.00;98932.45;1483085;88;21422;-76
2023/12/14 02:01:21;;;;;;;13.10;10.73;;;;;;;5.05;100.00;98930.62;1479641;88;21479;-76
2023/12/14 02:03:51;;;;;;;13.07;9.87;;;;;;;5.04;100.00;98922.42;1479486;88;22441;-76
2023/12/14 02:06:17;;;;;;;12.13;8.73;;;;;;;5.03;100.00;98925.51;1481209;88;21575;-75
2023/12/14 02:08:43;;;;;;;12.70;9.43;;;;;;;5.04;100.00;98943.41;1455806;88;21552;-75
2023/12/14 02:11:10;;;;;;;12.30;10.10;;;;;;;5.04;100.00;98946.03;1488263;88;21604;-76
2023/12/14 02:13:36;;;;;;;13.87;10.43;;;;;;;5.03;100.00;98934.69;1481059;88;21464;-76
2023/12/14 02:16:04;;;;;;;10.63;8.90;;;;;;;5.05;100.00;98928.00;1483224;88;21427;-75
2023/12/14 02:18:30;;;;;;;12.57;9.63;;;;;;;5.09;100.00;98933.27;1484174;88;21470;-76
2023/12/14 02:20:56;;;;;;;11.37;9.00;;;;;;;5.12;100.00;98929.03;1475885;88;21649;-77
2023/12/14 02:23:22;;;;;;;13.07;9.90;;;;;;;5.13;100.00;98914.97;1480975;88;21413;-75
2023/12/14 02:25:49;;;;;;;14.33;10.80;;;;;;;5.10;100.00;98898.22;1485315;88;21670;-76
2023/12/14 02:28:15;;;;;;;17.40;12.90;;;;;;;5.10;100.00;98892.98;1478603;88;22521;-76
2023/12/14 02:30:41;;;;;;;16.10;11.70;;;;;;;5.08;100.00;98893.11;1474811;88;21914;-77
2023/12/14 02:33:07;;;;;;;16.23;11.93;;;;;;;5.09;100.00;98893.94;1472856;88;21427;-75
2023/12/14 02:35:33;;;;;;;18.53;13.53;;;;;;;5.10;100.00;98895.60;1460999;88;21673;-76
2023/12/14 02:37:59;;;;;;;15.20;11.90;;;;;;;5.10;100.00;98891.67;1483093;88;21406;-77
2023/12/14 02:40:25;;;;;;;16.07;13.00;;;;;;;5.11;100.00;98882.81;1458011;88;22278;-75
2023/12/14 02:42:51;;;;;;;18.63;12.53;;;;;;;5.09;100.00;98896.55;1459678;88;21419;-75
2023/12/14 02:45:18;;;;;;;19.50;13.93;;;;;;;5.06;100.00;98921.77;1480492;88;21421;-75
2023/12/14 02:47:44;;;;;;;15.47;11.73;;;;;;;5.03;100.00;98933.87;1478168;88;21493;-75
2023/12/14 02:50:10;;;;;;;15.60;12.50;;;;;;;4.97;100.00;98931.35;1486001;88;21450;-77
2023/12/14 02:52:36;;;;;;;18.87;14.00;;;;;;;4.93;100.00;98940.50;1479471;88;21571;-76
2023/12/14 02:55:03;;;;;;;17.13;12.50;;;;;;;4.90;100.00;98947.34;1481146;88;22329;-77
2023/12/14 02:57:29;;;;;;;16.40;11.60;;;;;;;4.87;100.00;98944.53;1482034;88;21494;-77
2023/12/14 02:59:55;;;;;;;18.83;13.17;;;;;;;4.86;100.00;98926.31;1480562;88;22249;-77
2023/12/14 03:02:22;;;;;;;17.43;12.93;;;;;;;4.88;100.00;98939.62;1477842;88;22478;-76
2023/12/14 03:04:48;;;;;;;20.10;13.43;;;;;;;4.90;100.00;98942.92;1477714;88;21553;-76
2023/12/14 03:07:15;;;;;;;16.63;11.47;;;;;;;4.88;100.00;98943.55;1482284;88;21465;-77
2023/12/14 03:09:43;;;;;;;16.97;12.73;;;;;;;4.88;100.00;98967.14;1459767;88;21420;-76
2023/12/14 03:12:09;;;;;;;20.10;14.37;;;;;;;4.87;100.00;98972.06;1477252;88;22425;-76
2023/12/14 03:14:35;;;;;;;20.53;14.20;;;;;;;4.85;100.00;98978.41;1474859;88;21516;-78
2023/12/14 03:17:02;;;;;;;26.70;15.50;;;;;;;4.83;100.00;98989.03;1480920;88;21637;-76
2023/12/14 03:19:29;;;;;;;25.40;17.73;;;;;;;4.81;100.00;99001.98;1469450;88;21606;-78
2023/12/14 03:21:55;;;;;;;30.77;19.83;;;;;;;4.79;100.00;99009.15;1478505;88;21449;-76
2023/12/14 03:24:21;;;;;;;40.10;25.90;;;;;;;4.74;100.00;98988.11;1484409;88;21463;-78
2023/12/14 03:26:48;;;;;;;39.87;27.97;;;;;;;4.73;100.00;98997.45;1481064;88;21428;-78
2023/12/14 03:29:14;;;;;;;40.73;27.30;;;;;;;4.70;100.00;98991.19;1480981;88;22381;-77
2023/12/14 03:31:40;;;;;;;44.10;28.97;;;;;;;4.69;100.00;98980.34;1482388;88;21435;-78
2023/12/14 03:34:06;;;;;;;39.80;27.13;;;;;;;4.67;100.00;98960.03;1478236;88;21464;-76
2023/12/14 03:36:34;;;;;;;39.27;26.70;;;;;;;4.66;100.00;98938.25;1476411;88;22217;-77
2023/12/14 03:39:00;;;;;;;37.77;26.60;;;;;;;4.62;100.00;98957.02;1481562;88;21517;-76
2023/12/14 03:41:26;;;;;;;38.40;26.90;;;;;;;4.59;100.00;98974.34;1485277;88;22493;-76
2023/12/14 03:43:53;;;;;;;36.67;26.07;;;;;;;4.58;100.00;98976.62;1481957;88;21464;-77
2023/12/14 03:46:19;;;;;;;41.10;26.13;;;;;;;4.59;100.00;98975.65;1476268;88;21509;-76
2023/12/14 03:48:45;;;;;;;37.73;24.90;;;;;;;4.57;100.00;98989.38;1468170;88;22418;-76
2023/12/14 03:51:11;;;;;;;33.73;25.67;;;;;;;4.59;100.00;99011.02;1489539;88;21981;-76
2023/12/14 03:53:37;;;;;;;36.17;24.07;;;;;;;4.61;100.00;99020.39;1480128;88;21347;-78
2023/12/14 03:56:04;;;;;;;30.70;19.80;;;;;;;4.64;100.00;99028.46;1476515;88;21524;-76
2023/12/14 03:58:30;;;;;;;29.47;20.00;;;;;;;4.67;100.00;99017.69;1482676;88;21434;-77
2023/12/14 04:00:56;;;;;;;31.20;19.00;;;;;;;4.70;100.00;99020.84;1485914;88;22336;-76
2023/12/14 04:03:22;;;;;;;26.23;17.93;;;;;;;4.73;100.00;99021.86;1478331;88;21564;-76
2023/12/14 04:05:49;;;;;;;27.10;19.10;;;;;;;4.77;100.00;99019.77;1484755;88;22634;-77
2023/12/14 04:08:17;;;;;;;21.83;16.77;;;;;;;4.81;100.00;99001.48;1485767;88;21413;-76
2023/12/14 04:10:43;;;;;;;21.97;16.33;;;;;;;4.83;100.00;99000.83;1479240;88;21656;-78
2023/12/14 04:13:09;;;;;;;32.47;19.93;;;;;;;4.84;100.00;99001.69;1457486;88;22241;-76
2023/12/14 04:15:35;;;;;;;21.53;16.37;;;;;;;4.84;100.00;99006.44;1482307;88;21546;-76
2023/12/14 04:18:02;;;;;;;24.37;16.07;;;;;;;4.83;100.00;99013.94;1476782;88;21634;-75
2023/12/14 04:20:28;;;;;;;17.97;12.87;;;;;;;4.79;100.00;99008.66;1480839;88;22278;-76
2023/12/14 04:22:55;;;;;;;20.87;14.13;;;;;;;4.75;100.00;99007.31;1480348;88;22624;-76
2023/12/14 04:25:21;;;;;;;18.63;14.13;;;;;;;4.74;100.00;99009.57;1478221;88;22054;-75
2023/12/14 04:27:47;;;;;;;21.80;14.50;;;;;;;4.76;100.00;99018.13;1477296;88;21471;-76
2023/12/14 04:30:14;;;;;;;35.73;27.67;;;;;;;4.80;100.00;99029.14;1483641;88;21405;-76
2023/12/14 04:32:40;;;;;;;30.97;23.87;;;;;;;4.80;100.00;99028.64;1483777;88;22322;-76
2023/12/14 04:35:08;;;;;;;23.93;15.90;;;;;;;4.80;100.00;99026.52;1483359;88;21383;-75
2023/12/14 04:37:35;;;;;;;19.37;13.23;;;;;;;4.79;100.00;99024.39;1493704;88;21576;-76
2023/12/14 04:40:03;;;;;;;23.00;14.33;;;;;;;4.77;100.00;99049.91;1476603;88;21470;-75
2023/12/14 04:42:29;;;;;;;19.17;13.50;;;;;;;4.74;100.00;99058.06;1480992;88;21838;-76
2023/12/14 04:44:55;;;;;;;20.20;13.30;;;;;;;4.72;100.00;99049.53;1484856;88;21420;-75
2023/12/14 04:47:21;;;;;;;22.97;13.43;;;;;;;4.71;100.00;99047.38;1483532;88;21721;-77
2023/12/14 04:49:47;;;;;;;22.03;12.93;;;;;;;4.71;100.00;99057.86;1489650;88;21457;-78
2023/12/14 04:52:13;;;;;;;17.20;12.27;;;;;;;4.72;100.00;99066.58;1484739;88;21474;-78
2023/12/14 04:54:40;;;;;;;20.90;14.03;;;;;;;4.73;100.00;99076.90;1479245;88;21540;-76
2023/12/14 04:57:06;;;;;;;18.70;13.60;;;;;;;4.75;100.00;99076.28;1486640;88;22365;-77
2023/12/14 04:59:33;;;;;;;17.87;12.33;;;;;;;4.77;100.00;99078.74;1484226;88;21501;-76
2023/12/14 05:01:59;;;;;;;18.17;13.10;;;;;;;4.80;100.00;99082.88;1481890;88;21488;-76
2023/12/14 05:04:25;;;;;;;18.47;13.63;;;;;;;4.75;100.00;99080.70;1481413;88;21509;-76
2023/12/14 05:06:51;;;;;;;17.83;12.37;;;;;;;4.72;100.00;99080.99;1477083;88;21649;-77
2023/12/14 05:09:18;;;;;;;19.77;12.50;;;;;;;4.68;100.00;99092.22;1481273;88;21628;-77
2023/12/14 05:11:44;;;;;;;19.13;13.37;;;;;;;4.68;100.00;99092.71;1478395;88;21494;-77
2023/12/14 05:14:10;;;;;;;20.37;14.00;;;;;;;4.68;100.00;99096.64;1475587;88;21493;-77
2023/12/14 05:16:36;;;;;;;18.10;12.13;;;;;;;4.69;100.00;99107.45;1473326;88;21554;-77
2023/12/14 05:19:02;;;;;;;16.50;12.07;;;;;;;4.72;100.00;99103.27;1475942;88;21479;-76
2023/12/14 05:21:29;;;;;;;21.47;13.03;;;;;;;4.76;100.00;99099.38;1475985;88;22302;-77
2023/12/14 05:23:55;;;;;;;17.43;12.70;;;;;;;4.76;100.00;99105.94;1472117;88;21510;-77
2023/12/14 05:26:21;;;;;;;18.00;11.70;;;;;;;4.76;100.00;99100.69;1478996;88;21450;-78
2023/12/14 05:28:47;;;;;;;16.40;12.43;;;;;;;4.77;100.00;99115.93;1478104;88;21464;-77
2023/12/14 05:31:13;;;;;;;18.17;12.00;;;;;;;4.75;100.00;99118.22;1477830;88;21421;-76
2023/12/14 05:33:40;;;;;;;19.17;12.50;;;;;;;4.73;100.00;99119.33;1476419;88;21451;-76
2023/12/14 05:36:10;;;;;;;16.67;12.03;;;;;;;4.70;100.00;99119.61;1477918;88;21586;-76
2023/12/14 05:38:41;;;;;;;18.80;13.00;;;;;;;4.67;100.00;99113.34;1471046;88;21657;-76
2023/12/14 05:41:07;;;;;;;;;;;;;;;4.66;100.00;99117.77;1472283;88;22588;-76
2023/12/14 05:43:33;;;;;;;18.70;12.70;;;;;;;4.66;100.00;99130.02;1468913;88;20380;-77
2023/12/14 05:46:00;;;;;;;21.90;14.70;;;;;;;4.67;100.00;99131.69;1481511;88;21406;-77
2023/12/14 05:48:30;;;;;;;16.70;12.20;;;;;;;4.68;100.00;99145.13;1456188;88;21613;-77
2023/12/14 05:50:54;;;;;;;19.33;12.00;;;;;;;4.69;100.00;99144.14;1480199;88;21502;-76
2023/12/14 05:53:20;;;;;;;20.20;13.60;;;;;;;4.71;100.00;99141.73;1469573;88;21472;-76
2023/12/14 05:55:46;;;;;;;23.07;14.30;;;;;;;4.74;100.00;99151.11;1472328;88;21413;-77
2023/12/14 05:58:13;;;;;;;20.43;13.87;;;;;;;4.75;100.00;99148.85;1467004;88;21531;-77
2023/12/14 06:00:40;;;;;;;21.60;15.07;;;;;;;4.71;100.00;99152.22;1482927;88;22345;-78
2023/12/14 06:03:06;;;;;;;20.47;14.57;;;;;;;4.69;100.00;99157.25;1461048;88;21450;-76
2023/12/14 06:05:32;;;;;;;24.87;18.07;;;;;;;4.66;100.00;99162.78;1476176;88;21458;-75
2023/12/14 06:07:59;;;;;;;41.13;26.53;;;;;;;4.63;100.00;99162.60;1467673;88;21499;-75
2023/12/14 06:10:25;;;;;;;41.40;26.30;;;;;;;4.60;100.00;99175.14;1473553;88;21458;-75
2023/12/14 06:12:51;;;;;;;36.13;25.53;;;;;;;4.59;100.00;99174.80;1462383;88;21442;-75
2023/12/14 06:15:17;;;;;;;32.93;25.00;;;;;;;4.59;100.00;99173.49;1467663;88;22441;-75
2023/12/14 06:17:43;;;;;;;32.60;23.77;;;;;;;4.60;100.00;99180.38;1473023;88;22047;-76
2023/12/14 06:20:10;;;;;;;37.10;21.87;;;;;;;4.57;100.00;99182.79;1478911;88;21701;-75
2023/12/14 06:22:37;;;;;;;28.20;17.07;;;;;;;4.55;100.00;99181.30;1480911;88;22257;-75
2023/12/14 06:25:04;;;;;;;29.07;18.73;;;;;;;4.55;100.00;99179.50;1472601;88;21398;-76
2023/12/14 06:27:31;;;;;;;22.70;14.93;;;;;;;4.55;100.00;99191.78;1468784;88;21619;-78
2023/12/14 06:29:57;;;;;;;19.97;13.23;;;;;;;4.52;100.00;99204.19;1465644;88;22367;-76
2023/12/14 06:32:23;;;;;;;21.63;14.30;;;;;;;4.51;100.00;99200.38;1472818;88;21591;-77
2023/12/14 06:34:50;;;;;;;19.20;13.27;;;;;;;4.52;100.00;99204.19;1478727;88;21539;-77
2023/12/14 06:37:16;;;;;;;28.93;15.67;;;;;;;4.53;100.00;99207.14;1478453;88;22647;-77
2023/12/14 06:39:43;;;;;;;23.03;13.73;;;;;;;4.55;100.00;99207.02;1466589;88;21435;-77
2023/12/14 06:42:09;;;;;;;21.63;13.20;;;;;;;4.56;100.00;99215.70;1461724;88;21465;-77
2023/12/14 06:44:35;;;;;;;27.13;13.80;;;;;;;4.55;100.00;99215.37;1480046;88;21502;-77
2023/12/14 06:47:01;;;;;;;23.73;14.50;;;;;;;4.53;100.00;99223.35;1468485;88;21811;-76
2023/12/14 06:49:27;;;;;;;20.80;14.17;;;;;;;4.51;100.00;99231.34;1476912;88;21969;-77
2023/12/14 06:51:53;;;;;;;22.03;14.97;;;;;;;4.49;100.00;99231.98;1473590;88;21472;-76
2023/12/14 06:54:19;;;;;;;27.97;14.73;;;;;;;4.47;100.00;99238.32;1477216;88;22589;-76
2023/12/14 06:56:46;;;;;;;31.43;16.07;;;;;;;4.44;100.00;99244.66;1468276;88;21516;-77
2023/12/14 06:59:12;;;;;;;35.17;17.53;;;;;;;4.40;100.00;99254.22;1474081;88;22119;-76
2023/12/14 07:01:38;;;;;;;31.63;17.40;;;;;;;4.35;100.00;99259.07;1463907;88;21627;-77
2023/12/14 07:04:05;;;;;;;29.17;17.90;;;;;;;4.33;100.00;99261.81;1484802;88;21405;-76
2023/12/14 07:06:31;;;;;;;34.03;18.07;;;;;;;4.29;100.00;99270.43;1468670;88;21392;-77
2023/12/14 07:08:57;;;;;;;27.20;16.07;;;;;;;4.28;100.00;99264.83;1473209;88;21612;-77
2023/12/14 07:11:23;;;;;;;35.27;16.40;;;;;;;4.26;100.00;99268.09;1480030;88;22411;-76
2023/12/14 07:13:50;;;;;;;23.60;14.83;;;;;;;4.25;100.00;99266.89;1477521;88;21450;-76
2023/12/14 07:16:17;;;;;;;28.80;16.37;;;;;;;4.24;100.00;99280.48;1478659;88;21634;-77
2023/12/14 07:18:47;;;;;;;24.63;14.80;;;;;;;4.21;100.00;99281.23;1478604;88;21480;-76
2023/12/14 07:21:12;;;;;;;23.33;14.63;;;;;;;4.20;100.00;99284.80;1473492;88;21456;-77
2023/12/14 07:23:38;;;;;;;21.00;12.10;;;;;;;4.23;100.00;99292.38;1478411;88;21480;-77
2023/12/14 07:26:04;;;;;;;21.93;13.47;;;;;;;4.26;100.00;99294.28;1471688;88;21464;-76
2023/12/14 07:28:31;;;;;;;17.17;12.10;;;;;;;4.30;100.00;99301.38;1477356;88;21649;-76
2023/12/14 07:30:57;;;;;;;16.03;11.40;;;;;;;4.36;100.00;99312.62;1488984;88;21449;-76
2023/12/14 07:33:26;;;;;;;15.70;10.77;;;;;;;4.44;100.00;99312.77;1474694;88;21568;-76
2023/12/14 07:35:52;;;;;;;15.17;10.67;;;;;;;4.52;100.00;99319.48;1476761;88;21471;-76
2023/12/14 07:38:18;;;;;;;17.47;12.63;;;;;;;4.58;100.00;99322.53;1474002;88;22280;-76
2023/12/14 07:40:46;;;;;;;17.23;11.90;;;;;;;4.65;100.00;99328.87;1463144;88;21398;-76
2023/12/14 07:43:13;;;;;;;24.07;16.53;;;;;;;4.67;100.00;99334.32;1475199;88;21515;-76
2023/12/14 07:45:39;;;;;;;18.80;12.53;;;;;;;4.70;100.00;99336.66;1476394;88;22433;-76
2023/12/14 07:48:05;;;;;;;17.07;12.47;;;;;;;4.71;100.00;99334.87;1480437;88;21523;-76
2023/12/14 07:50:31;;;;;;;15.27;10.93;;;;;;;4.71;100.00;99332.25;1470980;88;21634;-77
2023/12/14 07:52:58;;;;;;;15.03;11.00;;;;;;;4.77;100.00;99330.38;1479016;88;21464;-77
2023/12/14 07:55:24;;;;;;;17.30;11.63;;;;;;;4.81;100.00;99330.47;1483192;88;21532;-77
2023/12/14 07:57:50;;;;;;;15.00;11.03;;;;;;;4.82;100.00;99329.50;1484986;88;22508;-76
2023/12/14 08:00:17;;;;;;;16.97;11.53;;;;;;;4.83;100.00;99335.08;1484123;88;21590;-76
2023/12/14 08:02:44;;;;;;;14.60;11.23;;;;;;;4.84;100.00;99339.86;1482430;88;21486;-77
2023/12/14 08:05:10;;;;;;;15.97;10.87;;;;;;;4.88;100.00;99342.54;1485118;88;22218;-77
2023/12/14 08:07:36;;;;;;;17.80;11.53;;;;;;;4.89;100.00;99347.66;1480971;88;21694;-76
2023/12/14 08:10:03;;;;;;;13.93;10.27;;;;;;;4.91;100.00;99352.27;1476140;88;21450;-77
2023/12/14 08:12:29;;;;;;;23.00;13.67;;;;;;;4.96;100.00;99356.62;1481488;88;21612;-77
2023/12/14 08:14:55;;;;;;;29.63;19.10;;;;;;;5.00;100.00;99362.89;1482033;88;21517;-76
2023/12/14 08:17:22;;;;;;;22.37;15.63;;;;;;;5.03;100.00;99363.93;1480675;88;21630;-77
2023/12/14 08:19:48;;;;;;;17.93;12.20;;;;;;;5.07;100.00;99374.02;1488478;88;21436;-76
2023/12/14 08:22:15;;;;;;;105.50;42.20;;;;;;;5.13;100.00;99373.46;1476904;88;22256;-77
2023/12/14 08:24:43;;;;;;;48.03;26.50;;;;;;;5.16;100.00;99375.80;1468434;88;21664;-76
2023/12/14 08:27:09;;;;;;;34.97;19.70;;;;;;;5.17;100.00;99377.94;1483443;88;21664;-76
2023/12/14 08:29:35;;;;;;;22.70;14.83;;;;;;;5.20;100.00;99386.84;1481707;88;21443;-76
2023/12/14 08:32:03;;;;;;;23.90;14.63;;;;;;;5.21;100.00;99388.52;1479305;88;22331;-77
2023/12/14 08:34:29;;;;;;;24.97;17.17;;;;;;;5.22;100.00;99393.28;1478294;88;21464;-76
2023/12/14 08:36:55;;;;;;;23.23;15.70;;;;;;;5.24;100.00;99398.73;1484439;88;22284;-76
2023/12/14 08:39:21;;;;;;;23.07;16.17;;;;;;;5.24;100.00;99402.67;1491299;88;21462;-76
2023/12/14 08:41:48;;;;;;;30.23;20.50;;;;;;;5.29;100.00;99416.17;1480192;88;22462;-76
2023/12/14 08:44:15;;;;;;;28.50;18.93;;;;;;;5.32;100.00;99414.62;1481373;88;21494;-76
2023/12/14 08:46:46;;;;;;;20.50;14.97;;;;;;;5.35;100.00;99417.42;1481920;88;21456;-76
2023/12/14 08:49:13;;;;;;;;;;;;;;;5.37;100.00;99421.56;1483921;88;21642;-76
2023/12/14 08:51:39;;;;;;;18.83;13.13;;;;;;;5.40;100.00;99422.59;1476358;88;20417;-80
2023/12/14 08:54:06;;;;;;;19.50;14.33;;;;;;;5.43;100.00;99431.50;1471924;88;21485;-77
2023/12/14 08:56:33;;;;;;;23.77;14.33;;;;;;;5.51;100.00;99437.87;1478994;88;21533;-76
2023/12/14 08:59:00;;;;;;;22.27;16.40;;;;;;;5.55;100.00;99437.92;1488010;88;21509;-77
2023/12/14 09:01:26;;;;;;;20.40;15.90;;;;;;;5.60;100.00;99446.21;1474629;88;21526;-77
2023/12/14 09:03:52;;;;;;;20.33;14.67;;;;;;;5.66;100.00;99445.65;1484196;88;21442;-77
2023/12/14 09:06:19;;;;;;;18.53;14.03;;;;;;;5.71;100.00;99451.31;1492230;88;22078;-77
2023/12/14 09:08:45;;;;;;;19.97;13.70;;;;;;;5.73;100.00;99450.70;1482403;88;22285;-76
2023/12/14 09:11:12;;;;;;;16.20;10.90;;;;;;;5.76;100.00;99450.42;1484511;88;21347;-77
2023/12/14 09:13:38;;;;;;;25.63;12.60;;;;;;;5.76;100.00;99452.22;1483161;88;22189;-77
2023/12/14 09:16:06;;;;;;;18.30;12.03;;;;;;;5.76;100.00;99454.36;1479918;88;21530;-77
2023/12/14 09:18:33;;;;;;;17.00;9.97;;;;;;;5.80;100.00;99453.58;1485939;88;21420;-77
2023/12/14 09:20:59;;;;;;;19.50;9.80;;;;;;;5.78;100.00;99456.36;1473475;88;22429;-78
2023/12/14 09:23:25;;;;;;;18.50;11.33;;;;;;;5.81;100.00;99454.77;1453358;88;21437;-78
2023/12/14 09:25:51;;;;;;;21.90;10.07;;;;;;;5.85;100.00;99460.06;1485279;88;21420;-76
2023/12/14 09:28:18;;;;;;;23.80;13.70;;;;;;;5.87;100.00;99469.95;1490901;88;21375;-78
2023/12/14 09:30:44;;;;;;;34.63;12.60;;;;;;;5.85;100.00;99464.50;1462346;88;21513;-77
2023/12/14 09:33:10;;;;;;;16.20;11.07;;;;;;;5.90;100.00;99468.84;1484968;88;22368;-77
2023/12/14 09:35:36;;;;;;;31.80;13.80;;;;;;;5.89;100.00;99469.31;1477516;88;21546;-77
2023/12/14 09:38:07;;;;;;;17.90;11.77;;;;;;;5.91;100.00;99467.05;1484405;88;21465;-77
2023/12/14 09:40:34;;;;;;;15.98;10.48;;;;;;;5.90;100.00;99460.97;1473642;88;22264;-76
2023/12/14 09:43:01;;;;;;;23.90;10.90;;;;;;;5.94;100.00;99468.11;1479056;88;21487;-77
2023/12/14 09:45:30;;;;;;;25.10;11.07;;;;;;;5.92;100.00;99470.01;1475294;88;22292;-77
2023/12/14 09:47:59;;;;;;;16.13;9.90;;;;;;;5.96;100.00;99474.87;1462368;88;21509;-77
2023/12/14 09:50:26;;;;;;;12.47;10.13;;;;;;;6.06;100.00;99470.91;1486112;88;21413;-76
2023/12/14 09:52:52;;;;;;;20.30;11.83;;;;;;;6.10;100.00;99478.87;1456006;88;21324;-76
2023/12/14 09:55:18;;;;;;;13.30;10.10;;;;;;;6.17;100.00;99480.43;1480741;88;21316;-72
2023/12/14 09:57:45;;;;;;;12.93;10.50;;;;;;;6.19;100.00;99485.89;1480528;88;21361;-72
2023/12/14 10:00:15;;;;;;;13.17;9.30;;;;;;;6.17;100.00;99494.39;1489323;88;21427;-72
2023/12/14 10:02:41;;;;;;;19.15;11.80;;;;;;;6.20;100.00;99495.42;1478435;88;21486;-73
2023/12/14 10:05:13;;;;;;;18.60;9.70;;;;;;;6.17;100.00;99493.08;1482275;88;22408;-71
2023/12/14 10:07:43;;;;;;;16.33;9.70;;;;;;;6.21;100.00;99491.81;1486786;88;21693;-73
2023/12/14 10:10:13;;;;;;;14.23;10.38;;;;;;;6.24;100.00;99499.89;1481771;88;21721;-73
2023/12/14 10:12:54;;;;;;;11.43;8.90;;;;;;;6.24;100.00;99501.20;1484660;88;21340;-72
2023/12/14 10:15:20;;;;;;;12.70;9.03;;;;;;;6.25;100.00;99504.20;1455348;88;21479;-72
2023/12/14 10:17:53;;;;;;;11.37;8.60;;;;;;;6.22;100.00;99504.00;1480173;88;21332;-76
2023/12/14 10:20:26;;;;;;;14.03;8.00;;;;;;;6.22;100.00;99504.48;1487524;88;21457;-75
2023/12/14 10:22:55;;;;;;;10.47;8.43;;;;;;;6.23;100.00;99506.95;1486454;88;22840;-76
2023/12/14 10:25:22;;;;;;;13.07;9.23;;;;;;;6.15;100.00;99512.08;1485626;88;21324;-76
2023/12/14 10:27:52;;;;;;;18.20;10.07;;;;;;;6.05;100.00;99509.98;1493692;88;21353;-75
2023/12/14 10:30:19;;;;;;;15.53;9.43;;;;;;;6.05;100.00;99504.72;1484679;88;22769;-76
2023/12/14 10:32:50;;;;;;;13.97;10.87;;;;;;;6.02;100.00;99512.40;1482457;88;22441;-76
2023/12/14 10:35:19;;;;;;;13.62;10.05;;;;;;;6.00;100.00;99511.70;1482280;88;21487;-75
2023/12/14 10:37:49;;;;;;;12.63;10.47;;;;;;;5.83;100.00;99517.14;1487365;88;21353;-76
2023/12/14 10:40:15;;;;;;;16.23;11.03;;;;;;;5.73;100.00;99518.14;1459764;88;22513;-76
2023/12/14 10:42:45;;;;;;;13.23;10.07;;;;;;;5.67;100.00;99518.20;1481714;88;21390;-76
2023/12/14 10:45:16;;;;;;;15.68;10.58;;;;;;;5.61;100.00;99518.73;1457556;88;21441;-76
2023/12/14 10:47:44;;;;;;;21.70;11.33;;;;;;;5.54;100.00;99522.89;1477687;88;21449;-75
2023/12/14 10:50:12;;;;;;;18.73;11.83;;;;;;;5.54;100.00;99523.71;1486802;88;21450;-75
2023/12/14 10:52:40;;;;;;;22.67;13.90;;;;;;;5.50;100.00;99529.39;1489121;88;21427;-77
2023/12/14 10:55:12;;;;;;;16.00;11.57;;;;;;;5.46;100.00;99536.69;1486852;88;22555;-76
2023/12/14 10:57:39;;;;;;;18.27;10.90;;;;;;;5.39;100.00;99545.59;1488296;88;21486;-75
2023/12/14 11:00:08;;;;;;;24.13;12.97;;;;;;;5.37;100.00;99542.27;1489764;88;21280;-76
2023/12/14 11:02:44;;;;;;;17.10;11.73;;;;;;;5.40;100.00;99548.55;1484655;88;21718;-76
2023/12/14 11:05:15;;;;;;;16.70;10.87;;;;;;;5.33;100.00;99550.08;1490539;88;21324;-76
2023/12/14 11:07:53;;;;;;;17.35;10.50;;;;;;;5.31;100.00;99555.94;1485274;88;22352;-76
2023/12/14 11:10:41;;;;;;;15.80;12.03;;;;;;;5.28;100.00;99554.89;1481330;88;22352;-76
2023/12/14 11:13:13;;;;;;;16.20;11.63;;;;;;;5.28;100.00;99556.69;1491885;88;21413;-76
2023/12/14 11:15:49;;;;;;;21.23;13.63;;;;;;;5.26;100.00;99556.81;1491089;88;21606;-76
2023/12/14 11:18:23;;;;;;;23.57;11.83;;;;;;;5.24;100.00;99561.39;1490094;88;21583;-76